Time;durP1;ratioP1;P1;durP2;ratioP2;P2;SDS_P1;SDS_P2;PMS_P1;PMS_P2;Temp;Humidity;BMP_temperature;BMP_pressure;BME280_temperature;BME280_humidity;BME280_pressure;Samples;Min_cycle;Max_cycle;Signal;HPM_P1;HPM_P2
2021/07/20 00:01:34;;;;;;;2.50;1.50;;;;;;;18.47;55.83;101235.69;5979251;29;20221;-75
2021/07/20 00:04:39;;;;;;;1.67;1.58;;;;;;;18.40;56.03;101240.56;5943002;29;1121106;-75
2021/07/20 00:07:45;;;;;;;1.50;1.48;;;;;;;18.42;55.53;101226.47;5980230;29;20193;-75
2021/07/20 00:10:51;;;;;;;1.70;1.60;;;;;;;18.27;56.06;101221.63;5979114;29;20492;-75
2021/07/20 00:13:56;;;;;;;4.72;1.58;;;;;;;18.27;56.05;101229.91;5980455;29;20228;-75
2021/07/20 00:17:01;;;;;;;3.17;1.55;;;;;;;18.19;55.99;101222.09;5980061;29;20212;-75
2021/07/20 00:20:07;;;;;;;2.72;1.58;;;;;;;18.31;55.99;101228.28;5979017;29;20477;-75
2021/07/20 00:23:11;;;;;;;1.52;1.50;;;;;;;18.23;55.86;101212.19;5979970;29;20221;-75
2021/07/20 00:26:17;;;;;;;2.63;1.50;;;;;;;18.27;57.17;101213.34;5980241;29;20193;-75
2021/07/20 00:29:21;;;;;;;1.30;1.30;;;;;;;18.26;56.84;101210.84;5980280;29;20256;-75
2021/07/20 00:32:27;;;;;;;1.60;1.60;;;;;;;18.23;56.91;101205.84;5980153;29;20200;-75
2021/07/20 00:35:31;;;;;;;1.70;1.70;;;;;;;18.27;56.66;101213.34;5980211;29;20271;-75
2021/07/20 00:38:36;;;;;;;1.90;1.50;;;;;;;18.11;57.31;101208.72;5980159;29;20209;-75
2021/07/20 00:41:40;;;;;;;1.70;1.60;;;;;;;18.06;57.84;101206.75;5984174;29;20193;-76
2021/07/20 00:44:44;;;;;;;1.48;1.48;;;;;;;18.12;57.62;101205.72;5984693;29;20200;-75
2021/07/20 00:47:50;;;;;;;1.50;1.50;;;;;;;18.01;57.68;101208.59;5984688;29;20263;-75
2021/07/20 00:50:56;;;;;;;1.50;1.50;;;;;;;17.94;57.87;101202.44;5982730;29;20235;-75
2021/07/20 00:54:00;;;;;;;1.55;1.45;;;;;;;18.06;56.65;101195.69;5982580;29;20219;-75
2021/07/20 00:57:06;;;;;;;1.50;1.40;;;;;;;18.09;56.08;101183.31;5983352;29;20213;-75
2021/07/20 01:00:15;;;;;;;1.40;1.40;;;;;;;18.02;56.59;101190.94;5984275;29;20273;-75
2021/07/20 01:03:25;;;;;;;1.50;1.50;;;;;;;18.13;55.67;101190.81;5982264;29;20253;-76
2021/07/20 01:06:30;;;;;;;1.33;1.33;;;;;;;18.06;55.83;101189.34;5983956;29;20201;-75
2021/07/20 01:09:36;;;;;;;1.50;1.50;;;;;;;18.07;55.69;101191.00;5982372;29;20338;-76
2021/07/20 01:12:43;;;;;;;1.67;1.60;;;;;;;17.98;56.26;101176.81;5982667;29;20316;-75
2021/07/20 01:15:48;;;;;;;1.70;1.60;;;;;;;18.03;56.09;101185.16;5981827;29;20215;-76
2021/07/20 01:18:57;;;;;;;1.42;1.42;;;;;;;18.06;56.42;101183.81;5982287;29;20526;-76
2021/07/20 01:22:02;;;;;;;1.55;1.55;;;;;;;17.96;58.29;101189.22;5983709;29;20225;-75
2021/07/20 01:25:12;;;;;;;1.50;1.42;;;;;;;17.98;57.75;101182.34;5981816;29;20215;-75
2021/07/20 01:28:19;;;;;;;1.42;1.35;;;;;;;17.98;57.97;101175.97;5982614;29;20263;-77
2021/07/20 01:31:26;;;;;;;1.30;1.30;;;;;;;17.96;56.72;101161.59;5982463;29;20485;-75
2021/07/20 01:34:41;;;;;;;1.45;1.45;;;;;;;18.02;56.25;101166.09;5982532;29;20299;-75
2021/07/20 01:37:49;;;;;;;1.63;1.63;;;;;;;18.02;56.32;101160.59;5981947;29;20389;-75
2021/07/20 01:41:06;;;;;;;1.55;1.45;;;;;;;17.94;56.74;101158.28;5982354;29;20273;-75
2021/07/20 01:44:13;;;;;;;1.38;1.38;;;;;;;17.83;56.98;101139.91;5981318;29;20232;-75
2021/07/20 01:47:27;;;;;;;1.40;1.40;;;;;;;17.94;56.26;101141.72;5980981;29;20253;-75
2021/07/20 01:50:35;;;;;;;1.50;1.40;;;;;;;17.86;56.44;101144.94;5980907;29;20421;-76
2021/07/20 01:53:41;;;;;;;1.55;1.50;;;;;;;17.85;56.70;101148.75;5983232;29;20283;-75
2021/07/20 01:56:50;;;;;;;1.40;1.40;;;;;;;17.77;57.64;101140.97;5981341;29;20232;-75
2021/07/20 02:00:00;;;;;;;1.50;1.50;;;;;;;17.76;57.81;101139.28;5980693;29;20499;-76
2021/07/20 02:03:33;;;;;;;1.50;1.50;;;;;;;17.77;58.30;101135.44;5981993;29;20252;-75
2021/07/20 02:10:14;;;;;;;1.67;1.67;;;;;;;17.75;58.39;101134.84;5980685;29;20209;-75
2021/07/20 02:13:45;;;;;;;1.50;1.50;;;;;;;17.73;58.48;101123.22;5982507;29;20197;-75
2021/07/20 02:17:13;;;;;;;1.25;1.25;;;;;;;17.66;59.27;101134.47;5963339;29;20212;-75
2021/07/20 02:20:23;;;;;;;1.70;1.70;;;;;;;17.70;58.52;101129.25;5982771;29;20200;-75
2021/07/20 02:23:34;;;;;;;1.30;1.30;;;;;;;17.66;58.43;101128.13;5980576;29;20274;-75
2021/07/20 02:26:40;;;;;;;1.60;1.50;;;;;;;17.71;58.72;101117.16;5982312;29;20224;-75
2021/07/20 02:29:47;;;;;;;1.58;1.58;;;;;;;17.64;59.13;101124.78;5995616;29;20215;-75
2021/07/20 02:32:57;;;;;;;1.50;1.50;;;;;;;17.63;58.97;101112.06;5995248;29;20247;-75
2021/07/20 02:36:01;;;;;;;1.33;1.33;;;;;;;17.64;59.41;101099.94;5981319;29;20357;-75
2021/07/20 02:39:13;;;;;;;1.58;1.58;;;;;;;17.61;59.47;101103.22;5980992;29;20241;-75
2021/07/20 02:42:25;;;;;;;1.33;1.33;;;;;;;17.56;59.20;101100.41;5980636;29;20550;-75
2021/07/20 02:45:38;;;;;;;2.25;1.70;;;;;;;17.55;59.61;101109.75;5994665;29;20297;-75
2021/07/20 02:48:48;;;;;;;1.65;1.65;;;;;;;17.61;59.62;101103.22;5980181;29;20291;-75
2021/07/20 02:51:56;;;;;;;1.30;1.30;;;;;;;17.58;59.63;101109.25;5980820;29;20591;-75
2021/07/20 02:55:01;;;;;;;1.60;1.40;;;;;;;17.60;59.65;101101.53;5980756;29;20264;-75
2021/07/20 02:58:07;;;;;;;1.40;1.40;;;;;;;17.51;59.97;101103.91;5980001;29;20208;-75
2021/07/20 03:01:16;;;;;;;1.65;1.65;;;;;;;17.51;59.65;101110.22;5980365;29;20240;-75
2021/07/20 03:04:22;;;;;;;1.40;1.40;;;;;;;17.54;60.45;101097.06;5981441;29;20554;-75
2021/07/20 03:07:29;;;;;;;1.58;1.45;;;;;;;17.56;60.46;101094.88;5981066;29;20193;-75
2021/07/20 03:10:36;;;;;;;1.92;1.30;;;;;;;17.55;59.92;101087.69;5981745;29;20193;-76
2021/07/20 03:13:45;;;;;;;1.85;1.75;;;;;;;17.55;60.45;101093.19;5981555;29;20196;-75
2021/07/20 03:16:57;;;;;;;1.50;1.50;;;;;;;17.52;60.51;101095.38;5979645;29;20488;-75
2021/07/20 03:20:04;;;;;;;1.70;1.70;;;;;;;17.51;60.86;101093.69;5980351;29;20240;-75
2021/07/20 03:23:16;;;;;;;2.25;1.30;;;;;;;17.56;60.80;101089.38;5979132;29;20216;-75
2021/07/20 03:26:23;;;;;;;1.42;1.42;;;;;;;17.67;60.34;101091.16;5980255;29;20288;-75
2021/07/20 03:29:31;;;;;;;1.48;1.45;;;;;;;17.67;60.69;101085.66;5979457;29;20568;-75
2021/07/20 03:32:40;;;;;;;1.55;1.55;;;;;;;17.66;61.20;101083.97;5979518;29;20243;-76
2021/07/20 03:35:45;;;;;;;1.50;1.50;;;;;;;17.67;61.16;101080.13;5994207;29;20224;-75
2021/07/20 03:38:51;;;;;;;2.78;1.50;;;;;;;17.74;60.72;101078.84;5979050;29;20209;-75
2021/07/20 03:41:56;;;;;;;1.50;1.50;;;;;;;17.79;60.98;101083.56;5979961;29;20387;-76
2021/07/20 03:45:01;;;;;;;1.23;1.23;;;;;;;17.83;60.37;101073.66;5980936;29;20255;-75
2021/07/20 03:48:07;;;;;;;1.50;1.50;;;;;;;17.87;59.66;101069.31;5980059;29;20234;-75
2021/07/20 03:51:22;;;;;;;2.15;1.38;;;;;;;17.87;60.32;101053.56;5979249;29;20288;-75
2021/07/20 03:54:28;;;;;;;1.38;1.38;;;;;;;17.90;59.50;101061.34;5978537;29;20334;-75
2021/07/20 03:57:34;;;;;;;1.48;1.48;;;;;;;17.92;59.74;101061.09;5980743;29;20218;-75
2021/07/20 04:00:38;;;;;;;1.83;1.70;;;;;;;17.86;60.50;101073.16;5978790;29;20208;-76
2021/07/20 04:03:46;;;;;;;1.10;1.10;;;;;;;17.84;60.17;101072.59;5978492;29;20272;-75
2021/07/20 04:07:15;;;;;;;1.65;1.60;;;;;;;17.96;60.14;101051.19;5942922;29;20583;-75
2021/07/20 04:10:58;;;;;;;1.63;1.58;;;;;;;17.99;59.54;101050.66;5971237;29;20266;-76
2021/07/20 04:14:30;;;;;;;1.95;1.40;;;;;;;18.03;59.81;101057.31;5978358;29;20213;-76
2021/07/20 04:17:38;;;;;;;1.45;1.45;;;;;;;18.04;60.23;101045.19;5978786;29;20591;-75
2021/07/20 04:20:45;;;;;;;1.60;1.50;;;;;;;18.06;60.88;101051.28;5979336;29;20228;-75
2021/07/20 04:23:50;;;;;;;2.63;1.70;;;;;;;18.09;60.14;101050.78;5978885;29;20208;-76
2021/07/20 04:27:04;;;;;;;1.92;1.40;;;;;;;18.20;59.56;101041.50;5979546;29;20259;-76
2021/07/20 04:30:13;;;;;;;1.92;1.30;;;;;;;18.27;59.99;101046.78;5978263;29;20496;-76
2021/07/20 04:33:24;;;;;;;1.38;1.38;;;;;;;18.37;60.04;101050.47;5979114;29;20209;-75
2021/07/20 04:36:56;;;;;;;4.28;1.42;;;;;;;18.45;58.92;101043.63;5979341;29;20225;-75
2021/07/20 04:40:13;;;;;;;1.85;1.40;;;;;;;18.47;58.17;101042.31;5980239;29;20263;-75
2021/07/20 04:43:19;;;;;;;1.38;1.38;;;;;;;18.56;58.28;101051.78;5979081;29;20500;-75
2021/07/20 04:46:24;;;;;;;1.40;1.40;;;;;;;18.62;58.22;101034.13;5978859;29;20228;-75
2021/07/20 04:49:35;;;;;;;1.27;1.27;;;;;;;18.63;57.84;101035.81;5979195;29;20215;-76
2021/07/20 04:52:42;;;;;;;1.42;1.40;;;;;;;18.63;57.73;101041.34;5978544;29;20269;-75
2021/07/20 04:55:49;;;;;;;1.30;1.30;;;;;;;18.65;58.24;101044.66;5978282;29;20546;-76
2021/07/20 04:58:53;;;;;;;2.72;1.33;;;;;;;18.75;58.03;101044.72;5978103;29;20240;-76
2021/07/20 05:01:58;;;;;;;3.13;1.50;;;;;;;18.73;57.40;101040.56;5978139;29;20430;-76
2021/07/20 05:05:14;;;;;;;1.27;1.27;;;;;;;18.82;57.49;101027.94;5977605;29;20636;-75
2021/07/20 05:08:22;;;;;;;1.58;1.48;;;;;;;18.85;57.48;101037.63;5977964;29;20216;-76
2021/07/20 05:11:37;;;;;;;1.42;1.33;;;;;;;18.90;57.50;101034.88;5979195;29;20193;-75
2021/07/20 05:14:42;;;;;;;1.35;1.35;;;;;;;18.90;57.34;101023.81;5979627;29;20197;-75
2021/07/20 05:18:12;;;;;;;1.55;1.50;;;;;;;19.10;57.07;101029.47;5978697;29;20193;-75
2021/07/20 05:21:19;;;;;;;1.60;1.50;;;;;;;19.18;56.84;101023.44;5977870;29;20234;-75
2021/07/20 05:24:25;;;;;;;1.88;1.35;;;;;;;19.31;56.82;101028.47;5979294;29;20208;-76
2021/07/20 05:27:39;;;;;;;1.75;1.08;;;;;;;19.27;57.17;101024.56;5982784;29;20262;-76
2021/07/20 05:30:45;;;;;;;2.40;1.40;;;;;;;19.38;56.80;101026.31;5996662;29;20430;-75
2021/07/20 05:33:50;;;;;;;1.58;1.50;;;;;;;19.39;56.75;101025.19;5983910;29;20276;-76
2021/07/20 05:36:56;;;;;;;1.10;1.10;;;;;;;19.53;57.12;101015.28;5982638;29;20212;-76
2021/07/20 05:40:03;;;;;;;1.15;1.15;;;;;;;19.65;56.81;100998.44;5982425;29;20193;-75
2021/07/20 05:43:19;;;;;;;1.20;1.20;;;;;;;19.73;56.38;101001.50;5981933;29;20216;-76
2021/07/20 05:46:24;;;;;;;1.60;1.50;;;;;;;19.69;56.71;101000.41;5981779;29;20420;-75
2021/07/20 05:49:35;;;;;;;1.85;1.45;;;;;;;19.67;57.03;100997.06;5981660;29;20231;-76
2021/07/20 05:52:43;;;;;;;2.67;1.42;;;;;;;19.86;56.77;101006.53;5983654;29;20231;-76
2021/07/20 05:55:51;;;;;;;3.25;1.50;;;;;;;19.99;56.93;100999.63;5981222;29;20213;-76
2021/07/20 05:58:58;;;;;;;2.03;1.60;;;;;;;20.28;55.97;100986.09;5981645;29;20409;-76
2021/07/20 06:02:04;;;;;;;2.13;1.20;;;;;;;20.23;55.77;101002.69;5981383;29;20236;-76
2021/07/20 06:05:13;;;;;;;1.52;1.42;;;;;;;20.34;55.24;100987.72;5982359;29;20239;-76
2021/07/20 06:08:18;;;;;;;1.60;1.42;;;;;;;20.48;55.50;100980.53;5985817;29;20220;-76
2021/07/20 06:11:26;;;;;;;1.50;1.50;;;;;;;20.64;55.78;100990.50;5989928;29;20193;-76
2021/07/20 06:14:32;;;;;;;1.50;1.50;;;;;;;20.59;54.79;100979.41;5990819;29;20216;-76
2021/07/20 06:17:36;;;;;;;2.40;1.38;;;;;;;20.67;55.06;100984.41;5990154;29;20196;-76
2021/07/20 06:20:45;;;;;;;4.18;1.42;;;;;;;20.67;54.82;100978.84;5991078;29;20272;-76
2021/07/20 06:23:52;;;;;;;1.95;1.38;;;;;;;20.68;55.39;100980.50;5993240;29;20193;-76
2021/07/20 06:26:59;;;;;;;1.60;1.50;;;;;;;20.78;55.04;100972.16;5993446;29;20232;-76
2021/07/20 06:30:05;;;;;;;3.38;1.23;;;;;;;20.75;55.35;100969.94;5992720;29;20193;-75
2021/07/20 06:33:13;;;;;;;1.40;1.30;;;;;;;20.77;55.47;100973.28;5992231;29;20311;-76
2021/07/20 06:36:20;;;;;;;4.32;1.30;;;;;;;20.86;55.45;100968.81;5992320;29;20201;-76
2021/07/20 06:39:24;;;;;;;1.67;1.67;;;;;;;20.71;55.21;100968.00;5992264;29;20294;-76
2021/07/20 06:42:30;;;;;;;1.67;1.35;;;;;;;20.59;56.32;100965.56;5993370;29;20279;-76
2021/07/20 06:45:37;;;;;;;5.18;1.60;;;;;;;20.71;56.08;100951.38;5995795;29;20213;-76
2021/07/20 06:48:46;;;;;;;1.50;1.50;;;;;;;20.71;55.46;100973.56;5995446;29;20189;-76
2021/07/20 06:51:50;;;;;;;1.50;1.40;;;;;;;20.72;55.50;100959.44;5995049;29;20213;-76
2021/07/20 06:54:54;;;;;;;1.23;1.23;;;;;;;20.82;55.05;100953.84;5994440;29;20442;-76
2021/07/20 06:58:02;;;;;;;1.30;1.30;;;;;;;20.90;55.76;100958.00;5994297;29;20250;-76
2021/07/20 07:01:10;;;;;;;1.42;1.30;;;;;;;20.99;55.97;100954.34;5995792;29;20200;-76
2021/07/20 07:04:21;;;;;;;4.32;1.58;;;;;;;21.14;55.57;100950.69;5993743;29;20270;-76
2021/07/20 07:07:28;;;;;;;2.00;1.60;;;;;;;21.23;55.88;100959.28;5994588;29;20212;-76
2021/07/20 07:10:32;;;;;;;1.40;1.40;;;;;;;21.34;55.84;100956.16;5993270;29;20193;-76
2021/07/20 07:13:42;;;;;;;5.60;1.73;;;;;;;21.50;55.70;100937.47;5995030;29;20253;-76
2021/07/20 07:16:49;;;;;;;1.67;1.48;;;;;;;21.60;54.77;100943.78;5989748;29;20208;-76
2021/07/20 07:19:56;;;;;;;1.65;1.55;;;;;;;21.72;54.23;100946.22;5994805;29;20218;-76
2021/07/20 07:23:02;;;;;;;1.40;1.40;;;;;;;21.79;54.59;100941.19;5994140;29;20221;-76
2021/07/20 07:26:13;;;;;;;1.52;1.50;;;;;;;21.91;54.76;100944.44;5993960;29;20245;-76
2021/07/20 07:29:20;;;;;;;1.30;1.30;;;;;;;22.05;54.80;100947.41;5993548;29;20193;-76
2021/07/20 07:32:25;;;;;;;1.58;1.48;;;;;;;22.09;54.44;100940.97;5994745;29;20181;-76
2021/07/20 07:35:31;;;;;;;2.42;1.73;;;;;;;22.14;54.72;100938.13;5994133;29;20204;-76
2021/07/20 07:38:37;;;;;;;3.72;1.60;;;;;;;22.23;54.30;100947.53;5994675;29;20196;-76
2021/07/20 07:41:45;;;;;;;1.70;1.60;;;;;;;22.27;54.34;100965.25;5993053;29;20185;-76
2021/07/20 07:44:54;;;;;;;2.80;1.40;;;;;;;22.32;53.52;100956.88;5993407;29;20189;-76
2021/07/20 07:47:59;;;;;;;1.58;1.48;;;;;;;22.29;53.89;100963.00;5992631;29;20244;-76
2021/07/20 07:51:05;;;;;;;2.47;1.50;;;;;;;22.31;53.48;100959.97;5993473;29;20189;-76
2021/07/20 07:54:10;;;;;;;1.85;1.50;;;;;;;22.31;53.00;100966.34;5993069;29;20218;-76
2021/07/20 07:57:16;;;;;;;2.05;1.50;;;;;;;22.33;53.44;100963.28;5992382;29;20225;-76
2021/07/20 08:00:22;;;;;;;1.80;1.80;;;;;;;22.31;54.09;100963.56;5991095;29;20256;-76
2021/07/20 08:03:28;;;;;;;6.18;1.48;;;;;;;22.49;54.34;100961.19;5987161;29;20294;-76
2021/07/20 08:06:34;;;;;;;1.70;1.60;;;;;;;22.55;53.79;100960.00;5990554;29;20257;-76
2021/07/20 08:09:51;;;;;;;4.38;1.85;;;;;;;22.50;53.73;100944.19;5989227;29;20193;-77
2021/07/20 08:12:58;;;;;;;1.75;1.67;;;;;;;22.53;54.02;100945.56;5990624;29;20200;-76
2021/07/20 08:16:06;;;;;;;1.67;1.58;;;;;;;22.55;53.96;100948.88;5990174;29;20220;-76
2021/07/20 08:19:11;;;;;;;1.80;1.70;;;;;;;22.54;53.71;100952.78;5991170;29;20240;-76
2021/07/20 08:22:18;;;;;;;2.05;1.40;;;;;;;22.38;54.44;100949.31;5989955;29;20215;-76
2021/07/20 08:25:28;;;;;;;5.68;1.60;;;;;;;22.54;54.13;100958.34;5988181;29;20241;-75
2021/07/20 08:28:37;;;;;;;1.50;1.50;;;;;;;22.58;53.51;100962.19;5980876;29;20269;-75
2021/07/20 08:31:46;;;;;;;1.95;1.48;;;;;;;22.51;53.41;100958.94;5979414;29;20200;-75
2021/07/20 08:34:59;;;;;;;3.90;1.48;;;;;;;22.48;53.83;100956.72;5978780;29;20209;-74
2021/07/20 08:38:24;;;;;;;1.48;1.42;;;;;;;22.39;53.70;100968.47;5979345;29;20197;-75
2021/07/20 08:41:39;;;;;;;2.97;1.40;;;;;;;22.30;53.92;100975.81;5981978;29;20220;-75
2021/07/20 08:45:02;;;;;;;1.55;1.55;;;;;;;22.32;53.88;100981.91;5979884;29;20208;-75
2021/07/20 08:48:21;;;;;;;1.73;1.60;;;;;;;22.07;54.17;100965.44;5979642;29;20228;-75
2021/07/20 08:51:32;;;;;;;2.35;1.83;;;;;;;22.05;54.21;100962.13;5978859;29;20249;-75
2021/07/20 08:54:40;;;;;;;5.97;1.70;;;;;;;22.25;53.99;100966.69;5979249;29;20193;-75
2021/07/20 08:57:50;;;;;;;1.80;1.80;;;;;;;22.32;53.78;100962.44;5979996;29;20261;-75
2021/07/20 09:00:59;;;;;;;1.65;1.55;;;;;;;22.35;54.32;100972.97;5983716;29;20193;-76
2021/07/20 09:04:10;;;;;;;2.08;1.83;;;;;;;22.50;54.33;100979.50;5984300;29;20601;-75
2021/07/20 09:07:17;;;;;;;1.80;1.70;;;;;;;22.45;54.58;100970.09;5984563;29;20300;-75
2021/07/20 09:10:23;;;;;;;1.63;1.63;;;;;;;22.51;54.47;100975.63;5983796;29;20540;-76
2021/07/20 09:13:33;;;;;;;4.32;2.08;;;;;;;22.60;53.89;100971.09;5984575;29;20199;-76
2021/07/20 09:16:42;;;;;;;1.95;1.75;;;;;;;22.55;54.71;100974.72;5984571;29;20204;-76
2021/07/20 09:19:55;;;;;;;1.60;1.60;;;;;;;22.53;55.10;100978.91;5983358;29;20386;-76
2021/07/20 09:23:04;;;;;;;1.80;1.70;;;;;;;22.58;55.47;100988.06;5983398;29;20200;-74
2021/07/20 09:26:13;;;;;;;3.97;1.50;;;;;;;22.55;54.53;100976.66;5982895;29;20394;-76
2021/07/20 09:29:20;;;;;;;1.70;1.65;;;;;;;22.72;54.54;100971.53;5983733;29;20291;-76
2021/07/20 09:32:43;;;;;;;2.15;1.60;;;;;;;22.68;52.19;100976.00;5982713;29;20200;-77
2021/07/20 09:35:52;;;;;;;1.88;1.58;;;;;;;22.73;53.06;100984.31;5982770;29;20193;-75
2021/07/20 09:39:18;;;;;;;1.77;1.45;;;;;;;22.66;53.49;100986.63;5982750;29;20503;-75
2021/07/20 09:42:35;;;;;;;2.08;1.67;;;;;;;22.30;52.57;100986.91;5981641;29;20438;-74
2021/07/20 09:45:46;;;;;;;1.50;1.50;;;;;;;22.26;53.35;100996.94;5982488;29;20391;-74
2021/07/20 09:48:55;;;;;;;2.47;1.52;;;;;;;22.13;53.09;100980.97;5981974;29;20568;-75
2021/07/20 09:52:44;;;;;;;1.65;1.55;;;;;;;22.28;52.62;100989.16;5996576;29;20382;-75
2021/07/20 09:56:06;;;;;;;1.63;1.55;;;;;;;22.31;52.20;100977.47;5977030;29;20485;-75
2021/07/20 09:59:28;;;;;;;1.65;1.60;;;;;;;22.33;52.97;100980.78;5982820;29;20197;-76
2021/07/20 10:02:44;;;;;;;1.77;1.67;;;;;;;22.49;53.85;100987.03;5982951;29;20265;-75
2021/07/20 10:05:57;;;;;;;1.70;1.60;;;;;;;22.47;52.67;100975.34;5982327;29;20193;-77
2021/07/20 10:09:06;;;;;;;1.88;1.88;;;;;;;22.60;52.66;100985.00;5983115;29;20228;-74
2021/07/20 10:12:22;;;;;;;2.00;2.00;;;;;;;22.62;51.71;100982.75;5983375;29;20210;-75
2021/07/20 10:15:42;;;;;;;4.95;1.70;;;;;;;22.57;50.23;100974.44;5982384;29;20193;-75
2021/07/20 10:18:54;;;;;;;3.70;1.73;;;;;;;22.59;49.51;100977.75;5981745;29;20435;-76
2021/07/20 10:22:01;;;;;;;5.00;1.80;;;;;;;22.67;49.88;100979.94;5983094;29;20193;-74
2021/07/20 10:25:17;;;;;;;1.67;1.67;;;;;;;22.67;48.95;100979.94;5981693;29;20487;-76
2021/07/20 10:28:26;;;;;;;1.85;1.75;;;;;;;22.85;49.51;100959.72;5982566;29;20284;-76
2021/07/20 10:31:40;;;;;;;1.90;1.90;;;;;;;22.98;49.99;100970.94;5981580;29;20266;-76
2021/07/20 10:34:48;;;;;;;1.75;1.73;;;;;;;22.65;49.49;100976.63;5982331;29;20200;-76
2021/07/20 10:37:55;;;;;;;4.90;1.75;;;;;;;22.76;50.30;100970.66;5982224;29;20197;-76
2021/07/20 10:41:04;;;;;;;2.17;1.88;;;;;;;22.41;49.47;100980.16;5981249;29;20500;-75
2021/07/20 10:44:15;;;;;;;3.40;1.73;;;;;;;22.49;49.73;100969.53;5982376;29;20224;-76
2021/07/20 10:47:25;;;;;;;2.40;1.80;;;;;;;22.69;49.86;100977.69;5994942;29;20215;-76
2021/07/20 10:50:35;;;;;;;3.13;1.70;;;;;;;22.88;49.74;100970.25;5982212;29;20228;-75
2021/07/20 10:53:48;;;;;;;1.73;1.63;;;;;;;22.86;50.08;100980.84;5981825;29;20256;-76
2021/07/20 10:56:58;;;;;;;1.50;1.50;;;;;;;22.81;49.87;100980.88;5982085;29;20228;-75
2021/07/20 11:00:14;;;;;;;1.88;1.88;;;;;;;23.01;49.49;100981.50;5982075;29;20196;-76
2021/07/20 11:03:27;;;;;;;1.83;1.75;;;;;;;23.10;49.16;100990.03;5981500;29;20243;-76
2021/07/20 11:06:34;;;;;;;2.17;1.98;;;;;;;23.03;48.62;100989.56;5981942;29;20260;-75
2021/07/20 11:09:41;;;;;;;1.63;1.63;;;;;;;23.09;48.25;100982.78;5981418;29;20284;-75
2021/07/20 11:12:52;;;;;;;1.60;1.60;;;;;;;23.09;48.17;100991.13;5981322;29;20193;-75
2021/07/20 11:16:02;;;;;;;1.60;1.60;;;;;;;23.21;48.19;100996.31;5981568;29;20193;-75
2021/07/20 11:19:09;;;;;;;2.58;1.88;;;;;;;23.11;46.95;100986.13;5979997;29;20290;-76
2021/07/20 11:22:14;;;;;;;1.67;1.67;;;;;;;23.25;47.09;100992.63;5980903;29;20275;-76
2021/07/20 11:25:19;;;;;;;2.28;2.00;;;;;;;23.35;46.76;100981.34;5981241;29;20268;-76
2021/07/20 11:28:27;;;;;;;1.92;1.80;;;;;;;23.37;47.02;100973.56;5981490;29;20217;-76
2021/07/20 11:31:41;;;;;;;3.33;2.00;;;;;;;23.25;47.58;100991.78;5981056;29;20263;-76
2021/07/20 11:34:50;;;;;;;2.47;1.77;;;;;;;23.23;47.72;100977.34;5979807;29;20392;-76
2021/07/20 11:38:09;;;;;;;2.72;1.77;;;;;;;23.21;48.29;100980.44;5981138;29;20199;-76
2021/07/20 11:41:23;;;;;;;3.28;2.17;;;;;;;23.26;48.07;100987.88;5980806;29;20194;-76
2021/07/20 11:44:41;;;;;;;2.65;2.35;;;;;;;23.27;47.98;100984.78;5979672;29;20484;-75
2021/07/20 11:47:51;;;;;;;3.05;2.40;;;;;;;23.32;47.73;100993.09;5981415;29;20199;-76
2021/07/20 11:51:02;;;;;;;6.07;2.30;;;;;;;23.25;47.11;100991.78;5978686;29;20524;-76
2021/07/20 11:54:12;;;;;;;2.25;2.25;;;;;;;23.40;46.48;100998.03;5978600;29;20399;-76
2021/07/20 11:57:55;;;;;;;2.55;2.35;;;;;;;23.38;46.24;100991.94;5982264;29;20510;-76
2021/07/20 12:01:48;;;;;;;2.83;2.63;;;;;;;23.48;46.67;100994.59;5979500;29;20395;-76
2021/07/20 12:05:12;;;;;;;2.28;2.20;;;;;;;23.40;46.69;101000.81;5980419;29;20197;-76
2021/07/20 12:08:26;;;;;;;4.35;2.60;;;;;;;23.35;46.72;101003.63;5979382;29;20194;-75
2021/07/20 12:11:32;;;;;;;5.47;2.60;;;;;;;23.34;46.81;101001.97;5980626;29;20286;-75
2021/07/20 12:14:37;;;;;;;2.75;2.55;;;;;;;23.51;46.69;100994.00;5980626;29;20193;-76
2021/07/20 12:17:42;;;;;;;2.70;2.50;;;;;;;23.59;45.90;100995.28;5979622;29;20200;-76
2021/07/20 12:20:49;;;;;;;3.00;2.80;;;;;;;23.59;45.14;100998.91;5980535;29;20197;-75
2021/07/20 12:23:57;;;;;;;2.80;2.60;;;;;;;23.74;45.56;100994.22;5979347;29;20433;-76
2021/07/20 12:27:01;;;;;;;3.10;3.00;;;;;;;23.52;46.20;101009.56;5980468;29;20251;-76
2021/07/20 12:30:07;;;;;;;3.10;2.90;;;;;;;23.65;46.69;101000.47;5979143;29;20284;-76
2021/07/20 12:33:15;;;;;;;2.85;2.65;;;;;;;23.88;46.75;101006.28;5981479;29;20200;-76
2021/07/20 12:36:23;;;;;;;3.40;3.17;;;;;;;23.66;46.98;101007.69;5984992;29;20193;-76
2021/07/20 12:39:27;;;;;;;3.42;3.20;;;;;;;23.82;46.85;101013.06;5984848;29;20197;-76
2021/07/20 12:42:36;;;;;;;3.20;3.10;;;;;;;24.01;46.40;101008.31;5983666;29;20208;-75
2021/07/20 12:45:41;;;;;;;4.28;3.10;;;;;;;23.63;46.04;101010.25;5983659;29;20435;-76
2021/07/20 12:48:48;;;;;;;3.25;3.13;;;;;;;23.70;46.30;101016.28;5983439;29;20208;-76
2021/07/20 12:51:55;;;;;;;3.45;3.25;;;;;;;23.64;46.41;101026.69;5983520;29;20212;-76
2021/07/20 12:54:59;;;;;;;4.20;3.40;;;;;;;23.59;46.81;101026.75;5984236;29;20200;-76
2021/07/20 12:58:12;;;;;;;3.55;3.30;;;;;;;23.48;46.94;101030.78;5983302;29;20289;-76
2021/07/20 13:01:17;;;;;;;3.42;3.13;;;;;;;23.49;46.30;101032.44;5984208;29;20205;-76
2021/07/20 13:04:21;;;;;;;3.40;3.20;;;;;;;23.60;46.42;101045.09;5983441;29;20299;-76
2021/07/20 13:07:32;;;;;;;3.78;3.20;;;;;;;23.57;47.22;101045.69;5983091;29;20193;-76
2021/07/20 13:10:36;;;;;;;3.08;2.80;;;;;;;23.59;47.42;101032.31;5984198;29;20221;-76
2021/07/20 13:13:41;;;;;;;3.10;2.90;;;;;;;23.64;47.29;101040.59;5982144;29;20208;-75
2021/07/20 13:16:47;;;;;;;3.28;3.17;;;;;;;23.55;47.39;101042.38;5983825;29;20193;-76
2021/07/20 13:19:51;;;;;;;3.30;3.10;;;;;;;23.57;46.58;101045.69;5982553;29;20248;-75
2021/07/20 13:22:57;;;;;;;3.20;3.15;;;;;;;23.50;46.63;101044.41;5983421;29;20209;-76
2021/07/20 13:26:01;;;;;;;3.20;3.00;;;;;;;23.28;47.86;101047.72;5983940;29;20272;-76
2021/07/20 13:29:12;;;;;;;3.08;2.97;;;;;;;23.29;47.63;101057.69;5982527;29;20392;-75
2021/07/20 13:32:19;;;;;;;2.95;2.60;;;;;;;23.33;47.34;101069.91;5983809;29;20204;-76
2021/07/20 13:35:25;;;;;;;3.58;3.17;;;;;;;23.35;47.58;101062.09;5982420;29;20544;-76
2021/07/20 13:38:33;;;;;;;3.22;2.92;;;;;;;23.62;45.91;101065.13;5982502;29;20192;-76
2021/07/20 13:41:38;;;;;;;2.75;2.72;;;;;;;24.14;45.32;101054.94;5982563;29;20366;-74
2021/07/20 13:44:43;;;;;;;3.03;2.83;;;;;;;25.43;41.78;101060.47;5980519;29;20209;-75
2021/07/20 13:47:52;;;;;;;3.40;3.10;;;;;;;25.07;42.19;101053.94;5983683;29;20199;-75
2021/07/20 13:51:02;;;;;;;2.85;2.75;;;;;;;25.46;42.08;101065.50;5982334;29;20256;-75
2021/07/20 13:54:08;;;;;;;3.70;3.40;;;;;;;25.05;44.03;101064.59;5982365;29;20480;-76
2021/07/20 13:57:14;;;;;;;4.35;3.03;;;;;;;24.67;45.17;101067.50;5983541;29;20193;-75
2021/07/20 14:00:19;;;;;;;3.60;3.30;;;;;;;24.37;45.70;101069.97;5982228;29;20493;-75
2021/07/20 14:03:24;;;;;;;3.10;2.88;;;;;;;24.17;44.62;101065.50;5982968;29;20272;-76
2021/07/20 14:06:29;;;;;;;3.28;2.83;;;;;;;23.97;45.20;101068.56;5983375;29;20265;-74
2021/07/20 14:09:35;;;;;;;3.30;3.00;;;;;;;24.07;44.65;101055.31;5982262;29;20192;-75
2021/07/20 14:12:39;;;;;;;3.92;3.10;;;;;;;24.20;44.94;101064.91;5982375;29;20256;-75
2021/07/20 14:15:44;;;;;;;4.07;3.30;;;;;;;23.59;45.45;101076.88;5981838;29;20208;-75
2021/07/20 14:18:51;;;;;;;2.78;2.78;;;;;;;23.43;45.17;101078.19;5982875;29;20193;-75
2021/07/20 14:21:58;;;;;;;4.25;3.33;;;;;;;23.42;45.92;101076.50;5982749;29;20242;-76
2021/07/20 14:25:04;;;;;;;3.30;3.20;;;;;;;23.57;46.02;101079.09;5981612;29;20225;-76
2021/07/20 14:28:11;;;;;;;3.60;3.30;;;;;;;23.44;46.36;101079.84;5981486;29;20193;-76
2021/07/20 14:31:15;;;;;;;3.30;3.20;;;;;;;23.33;46.04;101078.28;5981585;29;20221;-76
2021/07/20 14:34:20;;;;;;;3.30;3.10;;;;;;;23.45;45.87;101078.72;5982297;29;20224;-76
2021/07/20 14:37:36;;;;;;;2.83;2.83;;;;;;;23.50;45.14;101084.22;5982399;29;20197;-76
2021/07/20 14:40:46;;;;;;;3.80;3.50;;;;;;;23.52;45.19;101084.75;5982115;29;20319;-76
2021/07/20 14:43:59;;;;;;;3.25;3.15;;;;;;;23.39;44.53;101090.22;5982551;29;20260;-75